Dayton, OH (45417)

11:47 AM EDT on July 07, 2015 (GMT -0400)
Sinclair Dayton Campus | | Change Station
CLOSE
Current Station
Personal Weather Station
Location: Dayton, OH
Elevation: 780 ft
Nearby Weather Stations

Elev 780 ft 39.76 °N, 84.20 °W | Updated 10 seconds ago

Overcast
Overcast
79.6 °F
Feels Like 83 °F
N
10.0
Wind Variable Wind from SSW
Gusts 12.0 mph

Today
High -- | Low -- °F
--% Chance of Precip.
Yesterday
High -- | Low -- °F
Precip. -- in
6:15 AM 9:07 PM
Waning Gibbous, 64% visible
Pressure 29.97 in
Visibility 7.0 miles
Clouds Few 1600 ft
Scattered Clouds 2200 ft
Overcast 3300 ft
Heat Index 83 °F
Dew Point 72 °F
Humidity 78%
Rainfall 0.00 in
Snow Depth Not available.
UV 8.6 out of 12
Pollen 2.00 out of 12
Air Quality Not available.
Flu Activity Not available.
SPECI KDAY 071535Z 20011KT 7SM FEW016 SCT022 OVC033 26/22 A2997 RMK AO2 CIG 028 RWY 6L T02610222

More Conditions Fewer Conditions

Pressure 29.97 in
Visibility 7.0 miles
Clouds Few 1600 ft
Scattered Clouds 2200 ft
Overcast 3300 ft
Heat Index 83 °F
Dew Point 72 °F
Humidity 78%
Rainfall 0.00 in
Snow Depth Not available.
UV 8.6 out of 12
Pollen 2.00 out of 12
Air Quality Not available.
Flu Activity Not available.
SPECI KDAY 071535Z 20011KT 7SM FEW016 SCT022 OVC033 26/22 A2997 RMK AO2 CIG 028 RWY 6L T02610222

More Conditions Fewer Conditions

10-Day Weather Forecast

×

Almanac

Astronomy

Jul. 07, 2015 Rise Set
Actual Time
Civil Twilight
Nautical Twilight
Astronomical Twilight
Moon
Length of Visible Light
Length of Day
Tomorrow will be .
, % of the Moon is Illuminated

Today's Extremes

State Highs State Lows

Community

WunderPhotos

Upload Photos

1,835,823 photos uploaded!

WunderBlogs® & News

Nearby

Air Quality

  Air Quality AQ Index Pollutant
Not available.

Snow Depth

Station Depth Elevation

Earthquake Activity

City Distance Mag. Time & Date
Minimum magnitude displayed is 2.5.

Coastal Water Temperatures

Place Temperature

Stations

Nearby Weather Stations

Station Location Temp. Windchill Dew Point Humidity Wind Precip. Elev Updated Type